Mertens, TX (76666)

6:14 AM CDT on July 28, 2016 (GMT -0500)
Hillsboro | | Change Station

Elev 686 ft 32.08 °N, 97.10 °W | Updated 24 minutes ago

Clear
Clear
77 °F
Feels Like 77 °F
N
6
Wind Variable Wind from South

Today
High -- | Low -- °F
--% Chance of Precip.
Yesterday
High -- | Low -- °F
Precip. -- in
Pressure 29.97 in
Visibility 10.0 miles
Clouds Clear
Dew Point 72 °F
Humidity 84%
Rainfall 0.00 in
Snow Depth Not available.
6:40 AM 8:27 PM
Waning Crescent, 33% visible
METAR KINJ 281050Z AUTO 17005KT 10SM CLR 25/22 A2997 RMK AO2 T02500221
Pressure 29.97 in
Visibility 10.0 miles
Clouds Clear
Dew Point 72 °F
Humidity 84%
Rainfall 0.00 in
Snow Depth Not available.
6:40 AM 8:27 PM
Waning Crescent, 33% visible
METAR KINJ 281050Z AUTO 17005KT 10SM CLR 25/22 A2997 RMK AO2 T02500221

10-Day Weather Forecast

Almanac

Astronomy

Jul. 28, 2016 Rise Set
Actual Time
Civil Twilight
Nautical Twilight
Astronomical Twilight
Moon
Length of Visible Light
Length of Day
Tomorrow will be .
, % of the Moon is Illuminated

Today's Extremes

State Highs State Lows

Community

WunderPhotos

Upload Photos

1,928,082 photos uploaded!

WunderBlog® & News

Nearby

Air Quality

  Air Quality AQ Index Pollutant
Not available.

Snow Depth

Station Depth Elevation

Earthquake Activity

City Distance Mag. Time & Date
Minimum magnitude displayed is 2.5.

Coastal Water Temperatures

Place Temperature

Stations

Nearby Weather Stations

Station Location Temp. Windchill Dew Point Humidity Wind Precip. Elev Updated Type
                   

Watches & Warnings

There are currently no watches in effect.